Time;durP1;ratioP1;P1;durP2;ratioP2;P2;SDS_P1;SDS_P2;PMS_P1;PMS_P2;Temp;Humidity;BMP_temperature;BMP_pressure;BME280_temperature;BME280_humidity;BME280_pressure;Samples;Min_cycle;Max_cycle;Signal;HPM_P1;HPM_P2
2023/10/19 00:00:38;;;;;;;2.67;0.57;;;13.10;99.90;;;;;;4976072;28;20207;-72
2023/10/19 00:03:06;;;;;;;5.50;0.50;;;13.00;99.90;;;;;;4976490;28;20175;-76
2023/10/19 00:05:32;;;;;;;1.08;0.13;;;13.00;99.90;;;;;;4993886;28;20266;-76
2023/10/19 00:08:14;;;;;;;4.73;0.60;;;13.10;99.90;;;;;;4993458;28;20215;-75
2023/10/19 00:10:43;;;;;;;2.43;0.40;;;13.10;99.90;;;;;;4993753;28;20193;-73
2023/10/19 00:13:11;;;;;;;4.27;0.70;;;13.10;99.90;;;;;;4993703;28;20242;-76
2023/10/19 00:15:47;;;;;;;3.27;0.70;;;12.90;99.90;;;;;;4993708;28;20167;-73
2023/10/19 00:23:13;;;;;;;7.30;0.50;;;13.30;99.90;;;;;;4993931;28;20174;-76
2023/10/19 00:25:42;;;;;;;3.83;0.50;;;13.40;99.90;;;;;;4993683;28;20229;-76
2023/10/19 00:28:08;;;;;;;3.83;0.60;;;13.40;99.90;;;;;;4992643;28;20536;-76
2023/10/19 00:30:37;;;;;;;4.33;0.57;;;13.30;99.90;;;;;;4992838;28;20306;-76
2023/10/19 00:33:15;;;;;;;4.80;0.38;;;13.40;99.90;;;;;;4992025;28;20172;-76
2023/10/19 00:35:47;;;;;;;6.13;0.70;;;13.40;99.90;;;;;;4975186;28;20569;-76
2023/10/19 00:38:39;;;;;;;3.25;0.57;;;13.40;99.90;;;;;;4992942;28;20661;-76
2023/10/19 00:43:43;;;;;;;2.03;0.45;;;13.30;99.90;;;;;;4992501;28;20179;-76
2023/10/19 00:48:49;;;;;;;2.55;0.75;;;13.60;99.90;;;;;;4993242;28;20175;-74
2023/10/19 00:52:02;;;;;;;3.22;0.38;;;13.60;99.90;;;;;;4993176;28;20186;-76
2023/10/19 00:54:26;;;;;;;2.20;0.40;;;13.40;99.90;;;;;;4987293;28;20186;-73
2023/10/19 00:56:53;;;;;;;2.58;0.60;;;13.60;99.90;;;;;;4993109;28;20179;-75
2023/10/19 00:59:23;;;;;;;1.95;0.40;;;;;;;;;;4992646;28;20241;-75
2023/10/19 01:02:16;;;;;;;2.83;0.50;;;13.70;99.90;;;;;;4992899;28;20174;-74
2023/10/19 01:04:42;;;;;;;1.92;0.60;;;13.70;99.90;;;;;;4992917;28;20187;-75
2023/10/19 01:07:15;;;;;;;3.90;0.60;;;13.70;99.90;;;;;;4992925;28;20175;-74
2023/10/19 01:09:45;;;;;;;4.55;0.55;;;13.70;99.90;;;;;;4992613;28;20222;-74
2023/10/19 01:12:33;;;;;;;4.32;0.52;;;13.70;99.90;;;;;;4992456;28;20179;-74
2023/10/19 01:17:51;;;;;;;2.70;0.55;;;13.80;99.90;;;;;;4992603;28;20262;-74
2023/10/19 01:20:19;;;;;;;6.15;0.47;;;13.70;99.90;;;;;;4991945;28;20215;-74
2023/10/19 01:23:20;;;;;;;2.95;0.40;;;13.70;99.90;;;;;;4992285;28;20187;-75
2023/10/19 01:31:16;;;;;;;5.13;0.60;;;13.70;99.90;;;;;;4990006;28;20273;-75
2023/10/19 01:33:44;;;;;;;3.08;0.32;;;13.50;99.90;;;;;;4991732;28;20179;-75
2023/10/19 01:36:10;;;;;;;4.03;0.30;;;13.70;99.90;;;;;;4991607;28;20258;-75
2023/10/19 01:38:36;;;;;;;2.95;0.55;;;13.70;99.90;;;;;;4991959;28;20178;-75
2023/10/19 01:41:13;;;;;;;3.72;0.40;;;13.70;99.90;;;;;;4991879;28;20567;-75
2023/10/19 01:43:40;;;;;;;3.15;0.50;;;13.80;99.90;;;;;;4991112;28;20917;-75
2023/10/19 01:46:11;;;;;;;4.15;0.68;;;13.90;99.90;;;;;;4991256;28;20181;-75
2023/10/19 01:48:38;;;;;;;4.68;0.65;;;13.80;99.90;;;;;;4973860;28;20187;-75
2023/10/19 01:51:05;;;;;;;2.30;0.68;;;13.10;99.90;;;;;;4991403;28;20184;-75
2023/10/19 01:53:39;;;;;;;2.88;0.40;;;13.80;99.90;;;;;;4991470;28;20175;-74
2023/10/19 01:56:05;;;;;;;5.00;0.70;;;13.70;99.90;;;;;;4991091;28;20234;-75
2023/10/19 01:58:36;;;;;;;3.83;0.70;;;13.60;99.90;;;;;;4990941;28;20653;-75
2023/10/19 02:01:06;;;;;;;1.98;0.50;;;13.80;99.90;;;;;;4991194;28;20194;-75
2023/10/19 02:03:32;;;;;;;2.67;0.68;;;13.80;99.90;;;;;;4991164;28;20705;-75
2023/10/19 02:06:16;;;;;;;1.17;0.30;;;13.90;99.90;;;;;;4991276;28;20218;-75
2023/10/19 02:08:51;;;;;;;6.43;0.55;;;13.90;99.90;;;;;;4991101;28;20235;-75
2023/10/19 02:11:21;;;;;;;1.90;0.32;;;13.90;99.90;;;;;;4991085;28;20699;-75
2023/10/19 02:13:49;;;;;;;1.77;0.40;;;13.90;99.90;;;;;;4991182;28;20241;-75
2023/10/19 02:16:16;;;;;;;2.30;0.40;;;13.80;99.90;;;;;;4991280;28;20233;-74
2023/10/19 02:18:44;;;;;;;4.95;0.60;;;13.90;99.90;;;;;;4991178;28;20538;-75
2023/10/19 02:21:12;;;;;;;7.20;0.68;;;13.90;99.90;;;;;;4991030;28;20194;-75
2023/10/19 02:23:44;;;;;;;5.47;0.60;;;13.90;99.90;;;;;;4991031;28;20553;-75
2023/10/19 02:26:13;;;;;;;2.65;0.43;;;13.90;99.90;;;;;;4991342;28;20205;-75
2023/10/19 02:28:39;;;;;;;1.85;0.73;;;13.90;99.90;;;;;;4991204;28;20263;-75
2023/10/19 02:31:15;;;;;;;3.10;0.65;;;14.10;99.90;;;;;;4991101;28;20537;-75
2023/10/19 02:33:51;;;;;;;4.30;0.52;;;14.10;99.90;;;;;;4991401;28;20258;-75
2023/10/19 02:36:19;;;;;;;7.40;0.50;;;14.30;99.90;;;;;;4958491;28;20183;-75
2023/10/19 02:38:48;;;;;;;3.53;0.57;;;14.20;99.90;;;;;;4991330;28;20218;-75
2023/10/19 02:41:18;;;;;;;5.63;0.90;;;14.10;99.90;;;;;;4991186;28;20191;-75
2023/10/19 02:43:51;;;;;;;6.82;0.90;;;14.30;99.90;;;;;;4991033;28;20194;-75
2023/10/19 02:46:17;;;;;;;6.10;0.90;;;14.30;99.90;;;;;;4991065;28;20179;-75
2023/10/19 02:48:44;;;;;;;8.57;0.98;;;15.00;99.90;;;;;;4991073;28;20702;-74
2023/10/19 02:51:13;;;;;;;5.07;1.05;;;14.40;99.90;;;;;;4991185;28;20183;-75
2023/10/19 02:53:40;;;;;;;9.27;1.02;;;14.50;99.90;;;;;;4994672;28;20234;-75
2023/10/19 02:56:13;;;;;;;4.47;0.63;;;14.50;99.90;;;;;;4995058;28;20254;-75
2023/10/19 02:58:48;;;;;;;4.68;0.65;;;14.50;99.90;;;;;;4994866;28;20178;-75
2023/10/19 03:01:22;;;;;;;5.78;0.93;;;14.50;99.90;;;;;;4994849;28;20673;-74
2023/10/19 03:03:50;;;;;;;6.93;1.00;;;14.60;99.90;;;;;;4994992;28;20171;-75
2023/10/19 03:06:20;;;;;;;3.65;0.90;;;14.70;99.90;;;;;;4994981;28;20198;-75
2023/10/19 03:08:46;;;;;;;5.05;0.90;;;14.80;99.90;;;;;;4994798;28;20219;-75
2023/10/19 03:11:13;;;;;;;4.63;0.90;;;14.70;99.90;;;;;;4995369;28;20175;-75
2023/10/19 03:13:40;;;;;;;6.35;1.00;;;14.80;99.90;;;;;;4995605;28;20172;-75
2023/10/19 03:16:09;;;;;;;8.10;1.73;;;14.90;99.90;;;;;;4995617;28;20183;-74
2023/10/19 03:18:35;;;;;;;6.65;0.93;;;15.10;99.90;;;;;;4995432;28;20167;-75
2023/10/19 03:21:04;;;;;;;6.32;1.25;;;14.90;99.90;;;;;;4995324;28;20318;-75
2023/10/19 03:23:34;;;;;;;10.15;1.65;;;14.90;99.90;;;;;;4977622;28;20183;-74
2023/10/19 03:26:22;;;;;;;10.35;1.42;;;15.00;99.90;;;;;;4995133;28;20310;-75
2023/10/19 03:28:56;;;;;;;12.38;1.63;;;14.80;99.90;;;;;;4995008;28;20174;-75
2023/10/19 03:31:25;;;;;;;10.20;1.80;;;15.00;99.90;;;;;;4994584;28;20175;-75
2023/10/19 03:33:54;;;;;;;9.35;1.60;;;15.00;99.90;;;;;;4993345;28;20171;-75
2023/10/19 03:36:24;;;;;;;12.52;2.00;;;15.10;99.90;;;;;;4994464;28;20222;-75
2023/10/19 03:38:53;;;;;;;13.73;1.98;;;15.10;99.90;;;;;;4994230;28;20212;-75
2023/10/19 03:41:26;;;;;;;11.05;1.88;;;16.70;99.90;;;;;;4994374;28;20179;-75
2023/10/19 03:43:57;;;;;;;12.93;1.88;;;15.00;99.90;;;;;;4994318;28;20167;-74
2023/10/19 03:46:28;;;;;;;14.52;2.20;;;15.10;99.90;;;;;;4994600;28;20179;-74
2023/10/19 03:48:58;;;;;;;6.43;1.33;;;15.20;99.90;;;;;;4994884;28;20167;-74
2023/10/19 03:51:39;;;;;;;14.52;2.25;;;15.20;99.90;;;;;;4994343;28;20190;-74
2023/10/19 03:54:09;;;;;;;11.85;2.40;;;15.30;99.90;;;;;;4994442;28;20650;-74
2023/10/19 03:56:37;;;;;;;10.93;2.33;;;15.30;99.90;;;;;;4994084;28;20264;-74
2023/10/19 03:59:04;;;;;;;11.57;2.22;;;15.30;99.90;;;;;;4976497;28;20570;-74
2023/10/19 04:01:31;;;;;;;11.95;1.90;;;15.40;99.90;;;;;;4993835;28;20221;-74
2023/10/19 04:03:57;;;;;;;10.55;1.90;;;15.60;99.90;;;;;;4992568;28;20254;-75
2023/10/19 04:06:23;;;;;;;11.63;1.90;;;15.30;99.90;;;;;;4993192;28;20206;-74
2023/10/19 04:08:50;;;;;;;6.07;1.17;;;15.40;99.90;;;;;;4993392;28;20577;-74
2023/10/19 04:11:23;;;;;;;5.43;1.00;;;15.40;99.90;;;;;;4993402;28;20542;-74
2023/10/19 04:13:53;;;;;;;7.05;1.33;;;15.40;99.90;;;;;;4993271;28;20186;-74
2023/10/19 04:16:19;;;;;;;6.60;0.88;;;15.80;99.90;;;;;;4992829;28;20535;-74
2023/10/19 04:18:44;;;;;;;2.72;1.02;;;15.50;99.90;;;;;;4993034;28;20183;-74
2023/10/19 04:21:10;;;;;;;4.10;0.88;;;15.60;99.90;;;;;;4993382;28;20650;-74
2023/10/19 04:23:36;;;;;;;3.10;0.70;;;15.70;99.90;;;;;;4993256;28;20174;-74
2023/10/19 04:26:12;;;;;;;2.63;0.50;;;15.60;99.90;;;;;;4993326;28;20708;-74
2023/10/19 04:28:49;;;;;;;1.67;0.35;;;15.50;99.90;;;;;;4990962;28;20205;-74
2023/10/19 04:31:19;;;;;;;2.30;0.52;;;15.60;99.90;;;;;;4992793;28;20183;-74
2023/10/19 04:33:49;;;;;;;1.27;0.30;;;;;;;;;;4993081;28;20267;-74
2023/10/19 04:36:16;;;;;;;3.25;0.30;;;15.70;99.90;;;;;;4992826;28;20330;-75
2023/10/19 04:38:43;;;;;;;1.23;0.20;;;16.00;99.90;;;;;;4993126;28;20569;-74
2023/10/19 04:41:10;;;;;;;2.15;0.50;;;16.00;99.90;;;;;;4975637;28;20179;-75
2023/10/19 04:43:37;;;;;;;2.95;0.38;;;15.80;99.90;;;;;;4993106;28;20176;-75
2023/10/19 04:46:11;;;;;;;2.90;0.38;;;15.90;99.90;;;;;;4975529;28;20202;-75
2023/10/19 04:48:39;;;;;;;0.50;0.20;;;16.00;99.90;;;;;;4973548;28;20188;-75
2023/10/19 04:51:05;;;;;;;3.42;0.52;;;16.00;99.90;;;;;;4973548;28;20263;-74
2023/10/19 04:53:32;;;;;;;2.72;0.60;;;16.00;99.90;;;;;;4973288;28;20203;-75
2023/10/19 04:56:00;;;;;;;4.95;0.75;;;16.00;99.90;;;;;;4973290;28;20175;-75
2023/10/19 04:58:27;;;;;;;4.60;0.80;;;15.80;99.90;;;;;;4973130;28;20179;-74
2023/10/19 05:00:53;;;;;;;2.28;0.57;;;15.90;99.90;;;;;;4972862;28;20663;-75
2023/10/19 05:03:19;;;;;;;5.95;0.82;;;15.90;99.90;;;;;;4955566;28;20208;-75
2023/10/19 05:05:45;;;;;;;4.50;0.68;;;15.90;99.90;;;;;;4973108;28;20175;-74
2023/10/19 05:08:11;;;;;;;3.00;0.98;;;16.00;99.90;;;;;;4955553;28;20694;-75
2023/10/19 05:10:37;;;;;;;6.90;0.90;;;15.90;99.90;;;;;;4974043;28;20284;-74
2023/10/19 05:13:03;;;;;;;5.78;1.02;;;16.00;99.90;;;;;;4992348;28;20163;-75
2023/10/19 05:15:29;;;;;;;5.63;0.73;;;16.00;99.90;;;;;;4991851;28;20182;-74
2023/10/19 05:17:55;;;;;;;4.60;1.08;;;16.20;99.90;;;;;;4992154;28;20172;-74
2023/10/19 05:20:21;;;;;;;6.43;1.40;;;16.10;99.90;;;;;;4991919;28;20203;-74
2023/10/19 05:22:47;;;;;;;6.53;1.67;;;16.10;99.90;;;;;;4974499;28;20640;-74
2023/10/19 05:25:13;;;;;;;6.18;0.85;;;16.00;99.90;;;;;;4991809;28;20225;-74
2023/10/19 05:27:39;;;;;;;8.50;1.70;;;16.10;99.90;;;;;;4992188;28;20269;-74
2023/10/19 05:30:13;;;;;;;10.77;1.75;;;16.10;99.90;;;;;;4991822;28;20175;-74
2023/10/19 05:32:39;;;;;;;7.97;1.17;;;16.10;99.90;;;;;;4992003;28;20181;-75
2023/10/19 05:35:04;;;;;;;8.85;1.20;;;16.00;99.90;;;;;;4991861;28;20176;-75
2023/10/19 05:37:31;;;;;;;7.25;1.50;;;15.70;99.90;;;;;;4991799;28;20167;-74
2023/10/19 05:39:57;;;;;;;6.78;1.63;;;15.90;99.90;;;;;;4991856;28;20211;-74
2023/10/19 05:42:22;;;;;;;6.80;1.60;;;15.80;99.90;;;;;;4992072;28;20249;-74
2023/10/19 05:44:48;;;;;;;10.68;1.80;;;15.80;99.90;;;;;;4991800;28;20654;-74
2023/10/19 05:47:14;;;;;;;8.57;1.77;;;15.90;99.90;;;;;;4990284;28;20185;-73
2023/10/19 05:49:39;;;;;;;11.45;1.63;;;15.90;99.90;;;;;;4991680;28;20175;-74
2023/10/19 05:52:05;;;;;;;11.73;2.08;;;15.90;99.90;;;;;;4991761;28;20646;-74
2023/10/19 05:54:31;;;;;;;7.60;1.90;;;16.10;99.90;;;;;;4974256;28;20547;-74
2023/10/19 05:56:57;;;;;;;9.52;1.90;;;15.90;99.90;;;;;;4991957;28;20178;-74
2023/10/19 05:59:26;;;;;;;10.80;1.98;;;15.50;99.90;;;;;;4991206;28;20238;-74
2023/10/19 06:01:52;;;;;;;11.38;2.08;;;16.00;99.90;;;;;;4991653;28;20278;-74
2023/10/19 06:04:18;;;;;;;10.55;2.35;;;16.00;99.90;;;;;;4990940;28;20171;-74
2023/10/19 06:06:44;;;;;;;10.23;2.03;;;15.90;99.90;;;;;;4991146;28;20597;-74
2023/10/19 06:09:09;;;;;;;14.10;2.10;;;15.70;99.90;;;;;;4991409;28;20227;-74
2023/10/19 06:11:37;;;;;;;10.60;1.73;;;15.80;99.90;;;;;;4986871;28;20168;-74
2023/10/19 06:14:06;;;;;;;15.80;2.40;;;15.80;99.90;;;;;;4960573;28;20218;-75
2023/10/19 06:16:33;;;;;;;11.38;1.95;;;15.80;99.90;;;;;;4990917;28;20175;-75
2023/10/19 06:18:59;;;;;;;11.85;2.58;;;15.80;99.90;;;;;;4973714;28;20206;-75
2023/10/19 06:21:25;;;;;;;10.88;2.05;;;15.80;99.90;;;;;;4991349;28;20171;-74
2023/10/19 06:23:53;;;;;;;11.82;1.42;;;15.60;99.90;;;;;;4974032;28;20172;-75
2023/10/19 06:26:18;;;;;;;14.43;2.60;;;15.70;99.90;;;;;;4990709;28;20556;-75
2023/10/19 06:28:44;;;;;;;18.52;2.17;;;15.70;99.90;;;;;;4989725;28;20175;-75
2023/10/19 06:31:10;;;;;;;16.15;2.33;;;15.80;99.90;;;;;;4990802;28;20198;-75
2023/10/19 06:33:41;;;;;;;16.85;2.85;;;15.40;99.90;;;;;;4957565;28;20179;-75
2023/10/19 06:36:07;;;;;;;12.85;2.00;;;15.70;99.90;;;;;;4990945;28;20171;-78
2023/10/19 06:38:32;;;;;;;19.20;2.42;;;16.80;99.90;;;;;;4991330;28;20556;-76
2023/10/19 06:41:02;;;;;;;11.00;2.17;;;15.50;99.90;;;;;;4991052;28;20213;-77
2023/10/19 06:43:30;;;;;;;19.35;2.60;;;15.80;99.90;;;;;;4991146;28;20241;-74
2023/10/19 06:45:56;;;;;;;16.05;2.20;;;15.80;99.90;;;;;;4973673;28;20233;-74
2023/10/19 06:48:21;;;;;;;14.95;2.38;;;15.80;99.90;;;;;;4989994;28;20179;-76
2023/10/19 06:50:47;;;;;;;13.43;2.70;;;15.80;99.90;;;;;;4990948;28;20183;-76
2023/10/19 06:53:13;;;;;;;16.52;2.42;;;15.90;99.90;;;;;;4991083;28;20171;-74
2023/10/19 06:55:40;;;;;;;16.02;1.92;;;15.90;99.90;;;;;;4990956;28;20199;-75
2023/10/19 06:58:06;;;;;;;12.95;2.60;;;15.90;99.90;;;;;;4990898;28;20714;-75
2023/10/19 07:00:33;;;;;;;19.65;2.58;;;15.90;99.90;;;;;;4992177;28;20203;-75
2023/10/19 07:03:02;;;;;;;15.52;2.70;;;15.90;99.90;;;;;;4990433;28;20171;-75
2023/10/19 07:05:32;;;;;;;12.57;2.22;;;15.90;99.90;;;;;;4986169;28;20172;-76
2023/10/19 07:07:59;;;;;;;17.40;2.30;;;16.00;99.90;;;;;;4977117;28;20216;-76
2023/10/19 07:10:27;;;;;;;15.18;2.15;;;16.00;99.90;;;;;;4983486;28;20182;-76
2023/10/19 07:12:54;;;;;;;11.77;2.50;;;16.00;99.90;;;;;;4990949;28;20197;-75
2023/10/19 07:15:22;;;;;;;20.25;2.92;;;16.00;99.90;;;;;;4990773;28;20778;-75
2023/10/19 07:17:48;;;;;;;17.45;3.03;;;16.00;99.90;;;;;;4973327;28;20266;-75
2023/10/19 07:20:25;;;;;;;17.08;2.75;;;16.00;99.90;;;;;;4990396;28;20222;-75
2023/10/19 07:22:54;;;;;;;15.48;2.60;;;16.00;99.90;;;;;;4990684;28;20178;-75
2023/10/19 07:25:25;;;;;;;18.08;3.10;;;16.10;99.90;;;;;;4990916;28;20183;-75
2023/10/19 07:27:52;;;;;;;18.20;2.88;;;16.10;99.90;;;;;;4990111;28;20355;-75
2023/10/19 07:30:25;;;;;;;16.85;2.65;;;16.30;99.90;;;;;;4990247;28;20183;-76
2023/10/19 07:32:58;;;;;;;20.38;3.13;;;16.20;99.90;;;;;;4989965;28;20665;-75
2023/10/19 07:35:27;;;;;;;21.25;2.55;;;16.10;99.90;;;;;;4991041;28;20206;-76
2023/10/19 07:37:53;;;;;;;16.00;2.88;;;16.10;99.90;;;;;;4991117;28;20189;-75
2023/10/19 07:40:19;;;;;;;17.42;2.78;;;16.20;99.90;;;;;;4994019;28;20218;-75
2023/10/19 07:42:46;;;;;;;16.73;2.83;;;16.20;99.90;;;;;;4993985;28;20940;-75
2023/10/19 07:45:12;;;;;;;13.48;2.42;;;16.20;99.90;;;;;;4992726;28;20191;-75
2023/10/19 07:47:41;;;;;;;17.40;2.80;;;16.30;99.90;;;;;;4994163;28;20228;-74
2023/10/19 07:50:18;;;;;;;16.00;3.22;;;16.20;99.90;;;;;;4993735;28;20186;-74
2023/10/19 07:52:47;;;;;;;15.73;2.83;;;16.30;99.90;;;;;;4993866;28;20223;-74
2023/10/19 07:55:12;;;;;;;18.30;2.97;;;16.30;99.90;;;;;;4992906;28;20182;-74
2023/10/19 07:57:40;;;;;;;15.02;2.85;;;16.20;99.90;;;;;;4993416;28;20590;-74
2023/10/19 08:00:08;;;;;;;22.88;3.08;;;16.00;99.90;;;;;;4993542;28;20203;-75
2023/10/19 08:02:47;;;;;;;23.65;3.47;;;16.50;99.90;;;;;;4976422;28;20251;-73
2023/10/19 08:05:13;;;;;;;24.17;2.88;;;16.30;99.90;;;;;;4993493;28;20182;-76
2023/10/19 08:07:42;;;;;;;17.10;3.17;;;16.30;99.90;;;;;;4992337;28;20184;-74
2023/10/19 08:10:10;;;;;;;14.50;2.65;;;16.10;99.90;;;;;;4993603;28;20167;-74
2023/10/19 08:12:36;;;;;;;17.50;3.47;;;16.40;99.90;;;;;;4993692;28;20175;-73
2023/10/19 08:15:03;;;;;;;19.73;3.25;;;16.20;99.90;;;;;;4993755;28;20183;-73
2023/10/19 08:17:29;;;;;;;20.88;3.15;;;16.30;99.90;;;;;;4993502;28;20638;-75
2023/10/19 08:19:56;;;;;;;15.90;2.97;;;16.30;99.90;;;;;;4993416;28;20211;-74
2023/10/19 08:22:23;;;;;;;14.77;2.38;;;16.30;99.90;;;;;;4993365;28;20225;-74
2023/10/19 08:24:49;;;;;;;23.35;3.45;;;16.40;99.90;;;;;;4993557;28;20183;-74
2023/10/19 08:27:17;;;;;;;23.27;3.58;;;16.40;99.90;;;;;;4993334;28;20254;-75
2023/10/19 08:29:46;;;;;;;18.67;2.95;;;16.60;99.90;;;;;;4993112;28;20330;-74
2023/10/19 08:32:12;;;;;;;21.13;3.25;;;16.60;99.90;;;;;;4993504;28;20574;-76
2023/10/19 08:34:39;;;;;;;13.77;3.33;;;16.70;99.90;;;;;;4992891;28;20270;-75
2023/10/19 08:37:05;;;;;;;19.67;2.88;;;16.70;99.90;;;;;;4992318;28;20186;-74
2023/10/19 08:39:37;;;;;;;18.17;2.63;;;16.90;99.90;;;;;;4974386;28;20601;-77
2023/10/19 08:42:04;;;;;;;9.52;2.08;;;17.00;99.90;;;;;;4993156;28;20180;-76
2023/10/19 08:44:30;;;;;;;10.80;2.20;;;17.20;99.90;;;;;;4991647;28;20179;-75
2023/10/19 08:46:57;;;;;;;11.00;1.88;;;17.10;99.90;;;;;;4992000;28;20194;-74
2023/10/19 08:49:23;;;;;;;13.40;2.28;;;17.00;99.90;;;;;;4991452;28;20222;-76
2023/10/19 08:51:49;;;;;;;16.48;2.38;;;;;;;;;;4992754;28;20160;-75
2023/10/19 08:54:15;;;;;;;10.32;2.20;;;17.30;99.90;;;;;;4992354;28;20245;-75
2023/10/19 08:56:42;;;;;;;12.18;2.20;;;17.40;99.90;;;;;;4992962;28;20651;-74
2023/10/19 08:59:10;;;;;;;13.10;2.05;;;17.60;99.90;;;;;;4992693;28;20195;-75
2023/10/19 09:01:37;;;;;;;17.63;2.50;;;17.30;99.90;;;;;;4992775;28;20437;-76
2023/10/19 09:04:05;;;;;;;16.85;2.60;;;17.40;99.90;;;;;;4992337;28;20163;-76
2023/10/19 09:06:41;;;;;;;15.18;3.08;;;17.50;99.90;;;;;;4992232;28;20711;-78
2023/10/19 09:09:16;;;;;;;15.68;2.83;;;17.30;99.90;;;;;;4974876;28;20238;-78
2023/10/19 09:11:46;;;;;;;18.58;3.17;;;17.20;99.90;;;;;;4992841;28;20179;-77
2023/10/19 09:14:13;;;;;;;21.73;2.92;;;17.20;99.90;;;;;;4992693;28;20651;-77
2023/10/19 09:17:00;;;;;;;17.10;3.05;;;17.00;99.90;;;;;;4992113;28;20203;-73
2023/10/19 09:19:41;;;;;;;11.55;2.33;;;17.10;99.90;;;;;;4992496;28;20237;-76
2023/10/19 09:22:16;;;;;;;14.65;2.47;;;17.00;99.90;;;;;;4991181;28;20198;-75
2023/10/19 09:24:42;;;;;;;22.40;2.97;;;16.70;99.90;;;;;;4992502;28;20179;-75
2023/10/19 09:27:08;;;;;;;20.80;3.00;;;14.40;99.90;;;;;;4992112;28;20229;-75
2023/10/19 09:29:34;;;;;;;17.25;3.03;;;;;;;;;;4991946;28;20630;-75
2023/10/19 09:32:03;;;;;;;14.68;2.53;;;16.30;99.90;;;;;;4990163;28;20255;-75
2023/10/19 09:34:33;;;;;;;18.00;2.80;;;16.60;99.90;;;;;;4990244;28;20183;-75
2023/10/19 09:37:03;;;;;;;10.90;2.35;;;16.50;99.90;;;;;;4990219;28;20171;-74
2023/10/19 09:39:34;;;;;;;11.32;2.30;;;16.00;99.90;;;;;;4990524;28;20210;-75
2023/10/19 09:42:10;;;;;;;9.20;2.45;;;16.60;99.90;;;;;;4990193;28;20203;-75
2023/10/19 09:44:43;;;;;;;12.25;2.13;;;16.70;99.90;;;;;;4990326;28;20174;-77
2023/10/19 09:47:31;;;;;;;14.60;2.28;;;17.00;99.90;;;;;;4988761;28;20222;-74
2023/10/19 09:49:59;;;;;;;18.27;2.30;;;16.90;99.90;;;;;;4991040;28;20198;-73
2023/10/19 09:52:26;;;;;;;12.77;2.42;;;17.10;99.90;;;;;;4992090;28;20179;-73
2023/10/19 09:54:57;;;;;;;10.70;2.20;;;17.10;99.90;;;;;;4992043;28;20254;-73
2023/10/19 09:57:39;;;;;;;12.80;2.22;;;17.70;99.90;;;;;;4991558;28;20241;-73
2023/10/19 10:00:12;;;;;;;14.85;2.80;;;17.60;99.90;;;;;;4990109;28;20645;-73
2023/10/19 10:02:40;;;;;;;16.73;3.45;;;17.30;99.90;;;;;;4972303;28;20207;-73
2023/10/19 10:05:37;;;;;;;16.30;3.00;;;17.50;99.90;;;;;;4979671;28;20171;-73
2023/10/19 10:08:18;;;;;;;15.32;2.72;;;17.40;99.90;;;;;;4991354;28;20277;-73
2023/10/19 10:10:48;;;;;;;17.33;3.00;;;17.30;99.90;;;;;;4991666;28;20185;-73
2023/10/19 10:13:34;;;;;;;14.60;2.50;;;17.60;99.90;;;;;;4991105;28;20167;-75
2023/10/19 10:16:00;;;;;;;12.25;2.60;;;17.40;99.90;;;;;;4973702;28;20179;-74
2023/10/19 10:18:29;;;;;;;14.27;3.50;;;17.70;99.90;;;;;;4991396;28;20262;-72
2023/10/19 10:21:15;;;;;;;18.58;2.97;;;17.90;99.90;;;;;;4991445;28;20218;-73
2023/10/19 10:23:47;;;;;;;14.98;2.92;;;17.80;99.90;;;;;;4991384;28;20168;-74
2023/10/19 10:26:17;;;;;;;16.02;2.92;;;17.90;99.90;;;;;;4991307;28;20195;-74
2023/10/19 10:28:47;;;;;;;18.83;2.50;;;17.90;99.90;;;;;;4991076;28;20230;-74
2023/10/19 10:31:24;;;;;;;19.83;2.53;;;17.90;99.90;;;;;;4990994;28;20530;-73
2023/10/19 10:33:51;;;;;;;16.00;2.45;;;17.80;99.90;;;;;;4990875;28;20210;-73
2023/10/19 10:36:18;;;;;;;17.60;3.05;;;17.80;99.90;;;;;;4991323;28;20202;-73
2023/10/19 10:38:51;;;;;;;18.23;2.92;;;17.40;99.90;;;;;;4973252;28;20183;-74
2023/10/19 10:41:31;;;;;;;15.95;2.58;;;17.90;99.90;;;;;;4991254;28;20187;-73
2023/10/19 10:43:58;;;;;;;16.20;2.78;;;18.30;99.90;;;;;;4990510;28;20171;-72
2023/10/19 10:46:25;;;;;;;17.73;2.85;;;18.30;99.90;;;;;;4990639;28;20187;-74
2023/10/19 10:48:51;;;;;;;19.75;2.72;;;18.30;99.90;;;;;;4991104;28;20175;-74
2023/10/19 10:51:19;;;;;;;19.40;3.30;;;18.60;99.90;;;;;;4988917;28;20182;-74
2023/10/19 10:53:52;;;;;;;19.35;3.05;;;18.80;99.90;;;;;;4967532;28;20511;-74
2023/10/19 10:56:23;;;;;;;18.60;2.88;;;18.70;99.90;;;;;;4988392;28;20183;-74
2023/10/19 10:58:53;;;;;;;17.85;2.65;;;18.60;99.90;;;;;;4990922;28;20305;-73
2023/10/19 11:01:30;;;;;;;23.17;3.38;;;18.70;99.90;;;;;;4991221;28;20256;-73
2023/10/19 11:04:10;;;;;;;20.48;4.15;;;18.70;99.90;;;;;;4990901;28;20642;-73
2023/10/19 11:06:55;;;;;;;20.90;3.70;;;18.50;99.90;;;;;;4991045;28;20198;-73
2023/10/19 11:09:24;;;;;;;19.50;3.78;;;18.40;99.90;;;;;;4979297;28;20303;-72
2023/10/19 11:11:51;;;;;;;19.20;3.10;;;18.50;99.90;;;;;;4971768;28;20266;-73
2023/10/19 11:14:17;;;;;;;22.70;3.58;;;18.30;99.90;;;;;;4979137;28;20172;-73
2023/10/19 11:16:43;;;;;;;15.50;2.83;;;;;;;;;;4985315;28;20503;-73
2023/10/19 11:19:09;;;;;;;22.30;3.75;;;;;;;;;;4991455;28;20230;-72
2023/10/19 11:21:36;;;;;;;16.30;3.15;;;18.40;99.90;;;;;;4984391;28;20283;-73
2023/10/19 11:24:01;;;;;;;18.42;3.17;;;19.00;99.90;;;;;;4992339;28;20175;-73
2023/10/19 11:26:29;;;;;;;17.13;3.22;;;;;;;;;;4990215;28;20550;-73
2023/10/19 11:29:00;;;;;;;18.60;2.95;;;22.30;99.90;;;;;;4957644;28;20168;-73
2023/10/19 11:31:27;;;;;;;15.25;2.05;;;21.30;99.90;;;;;;4974936;28;20263;-74
2023/10/19 11:33:58;;;;;;;20.92;2.95;;;20.40;99.90;;;;;;4974789;28;20179;-73
2023/10/19 11:36:24;;;;;;;15.93;2.15;;;19.60;99.90;;;;;;4974975;28;20203;-73
2023/10/19 11:38:54;;;;;;;13.52;2.92;;;18.80;99.90;;;;;;4974429;28;20245;-73
2023/10/19 11:41:20;;;;;;;17.80;2.83;;;18.40;99.90;;;;;;4974479;28;20184;-73
2023/10/19 11:43:47;;;;;;;19.40;2.60;;;18.60;99.90;;;;;;4974917;28;20171;-74
2023/10/19 11:46:18;;;;;;;15.85;2.50;;;18.20;99.90;;;;;;4978413;28;20183;-74
2023/10/19 11:48:44;;;;;;;16.60;2.92;;;18.30;99.90;;;;;;4993854;28;20184;-73
2023/10/19 11:51:13;;;;;;;12.52;2.83;;;18.40;99.90;;;;;;4994006;28;20179;-72
2023/10/19 11:53:39;;;;;;;16.40;2.80;;;18.00;99.90;;;;;;4993989;28;20175;-73
2023/10/19 11:56:16;;;;;;;14.48;2.83;;;18.10;99.90;;;;;;4993559;28;20172;-73
2023/10/19 11:58:41;;;;;;;15.40;2.97;;;18.10;99.90;;;;;;4993807;28;20183;-73
2023/10/19 12:01:11;;;;;;;14.40;3.10;;;18.10;99.90;;;;;;4993460;28;20229;-73
2023/10/19 12:03:39;;;;;;;14.45;2.85;;;17.80;99.90;;;;;;4994015;28;20250;-74
2023/10/19 12:06:08;;;;;;;18.60;2.97;;;18.70;99.90;;;;;;4994118;28;20194;-74
2023/10/19 12:08:35;;;;;;;11.90;2.35;;;18.50;99.90;;;;;;4993822;28;20230;-74
2023/10/19 12:11:03;;;;;;;15.55;2.45;;;20.50;99.90;;;;;;4976354;28;20172;-73
2023/10/19 12:13:29;;;;;;;13.13;2.22;;;20.90;99.90;;;;;;4993686;28;20175;-74
2023/10/19 12:15:57;;;;;;;11.15;2.20;;;20.80;99.90;;;;;;4993459;28;20258;-74
2023/10/19 12:18:26;;;;;;;11.57;2.67;;;19.90;99.90;;;;;;4993709;28;20171;-73
2023/10/19 12:20:56;;;;;;;10.73;2.03;;;19.10;99.90;;;;;;4993650;28;20253;-74
2023/10/19 12:23:23;;;;;;;13.85;2.38;;;19.50;99.90;;;;;;4993210;28;20222;-75
2023/10/19 12:25:49;;;;;;;12.30;2.05;;;19.50;99.90;;;;;;4991945;28;20222;-73
2023/10/19 12:28:15;;;;;;;9.65;2.25;;;;;;;;;;4993095;28;20179;-74
2023/10/19 12:30:41;;;;;;;10.90;2.20;;;19.00;99.90;;;;;;4993075;28;20175;-74
2023/10/19 12:33:11;;;;;;;12.80;2.13;;;;;;;;;;4975940;28;20219;-74
2023/10/19 12:35:53;;;;;;;11.38;2.25;;;;;;;;;;4975694;28;20635;-73
2023/10/19 12:38:20;;;;;;;8.95;1.85;;;;;;;;;;4977615;28;20186;-73
2023/10/19 12:40:50;;;;;;;9.45;1.80;;;20.50;99.90;;;;;;4992922;28;20306;-73
2023/10/19 12:43:22;;;;;;;12.98;2.53;;;20.50;99.90;;;;;;4993441;28;20415;-75
2023/10/19 12:45:53;;;;;;;10.35;2.10;;;;;;;;;;4993304;28;20183;-74
2023/10/19 12:48:20;;;;;;;14.52;2.33;;;19.90;99.90;;;;;;4993277;28;20526;-74
2023/10/19 12:50:46;;;;;;;10.02;2.13;;;19.70;99.90;;;;;;4993124;28;20201;-75
2023/10/19 12:53:13;;;;;;;10.18;2.55;;;19.30;99.90;;;;;;4992851;28;20171;-74
2023/10/19 12:55:39;;;;;;;16.02;2.22;;;18.80;99.90;;;;;;4993180;28;20214;-74
2023/10/19 12:58:09;;;;;;;15.80;2.60;;;19.00;99.90;;;;;;4992519;28;20205;-74
2023/10/19 13:00:37;;;;;;;8.73;1.48;;;18.30;99.90;;;;;;4992884;28;20226;-74
2023/10/19 13:03:05;;;;;;;8.38;1.52;;;18.10;99.90;;;;;;4992840;28;20182;-74
2023/10/19 13:05:35;;;;;;;10.75;1.80;;;18.10;99.90;;;;;;4991491;28;20178;-74
2023/10/19 13:08:02;;;;;;;11.57;2.33;;;18.30;99.90;;;;;;4991726;28;20297;-75
2023/10/19 13:10:32;;;;;;;16.52;2.38;;;18.30;99.90;;;;;;4973799;28;20176;-74
2023/10/19 13:13:11;;;;;;;11.85;1.65;;;18.10;99.90;;;;;;4992561;28;20174;-75
2023/10/19 13:15:38;;;;;;;16.17;2.53;;;18.10;99.90;;;;;;4991844;28;20717;-74